Time;durP1;ratioP1;P1;durP2;ratioP2;P2;SDS_P1;SDS_P2;PMS_P1;PMS_P2;Temp;Humidity;BMP_temperature;BMP_pressure;BME280_temperature;BME280_humidity;BME280_pressure;Samples;Min_cycle;Max_cycle;Signal;HPM_P1;HPM_P2
2022/06/03 00:01:44;;;;;;;6.40;4.20;;;;;;;9.70;64.75;98553.17;109574;1277;22303;-88
2022/06/03 00:04:30;;;;;;;5.50;4.30;;;;;;;9.69;65.11;98550.11;109567;1277;22441;-89
2022/06/03 00:07:16;;;;;;;5.60;3.80;;;;;;;9.72;65.42;98550.90;109550;1277;22347;-87
2022/06/03 00:10:19;;;;;;;3.90;3.40;;;;;;;9.62;66.65;98551.77;109536;1277;22288;-86
2022/06/03 00:13:11;;;;;;;4.90;3.60;;;;;;;9.48;66.23;98550.85;108899;1278;22293;-88
2022/06/03 00:15:40;;;;;;;5.30;3.80;;;;;;;9.40;66.35;98548.41;109570;1277;22367;-89
2022/06/03 00:18:30;;;;;;;5.20;3.40;;;;;;;9.36;66.28;98542.45;109552;1275;22434;-89
2022/06/03 00:21:09;;;;;;;4.60;3.70;;;;;;;9.38;66.33;98543.58;109539;1277;22465;-88
2022/06/03 00:23:57;;;;;;;3.70;3.30;;;;;;;9.37;65.99;98540.08;109529;1277;23051;-89
2022/06/03 00:26:25;;;;;;;3.40;3.10;;;;;;;9.35;65.84;98542.71;109582;1277;22432;-88
2022/06/03 00:28:53;;;;;;;6.00;4.30;;;;;;;9.40;65.96;98538.73;109561;1277;22390;-89
2022/06/03 00:31:27;;;;;;;3.70;3.40;;;;;;;9.52;66.50;98535.61;109569;1277;22269;-90
2022/06/03 00:34:11;;;;;;;4.00;3.60;;;;;;;9.61;66.02;98534.59;109513;1278;22393;-91
2022/06/03 00:36:57;;;;;;;4.80;4.00;;;;;;;9.65;66.15;98530.82;109553;1277;22782;-91
2022/06/03 00:39:44;;;;;;;4.10;3.70;;;;;;;9.57;66.26;98529.77;109700;1277;22356;-90
2022/06/03 00:42:35;;;;;;;4.80;3.90;;;;;;;9.43;66.28;98530.38;109606;1277;22293;-90
2022/06/03 00:45:41;;;;;;;6.30;3.80;;;;;;;9.33;66.41;98529.61;109544;1277;22405;-89
2022/06/03 00:48:47;;;;;;;5.40;4.20;;;;;;;9.30;66.44;98528.02;109399;1277;22509;-91
2022/06/03 00:51:24;;;;;;;4.20;3.80;;;;;;;9.31;66.38;98523.20;109556;1277;23089;-92
2022/06/03 00:54:21;;;;;;;3.90;3.50;;;;;;;9.26;67.12;98523.92;109542;1278;23049;-90
2022/06/03 00:57:08;;;;;;;5.80;3.80;;;;;;;9.17;66.79;98520.46;109528;1277;22353;-91
2022/06/03 00:59:53;;;;;;;5.40;3.90;;;;;;;9.10;66.96;98518.92;109559;1277;22360;-91
2022/06/03 01:02:34;;;;;;;4.30;3.60;;;;;;;9.12;67.40;98517.58;109536;1277;22354;-92
2022/06/03 01:05:30;;;;;;;4.10;3.30;;;;;;;9.18;67.34;98516.36;109573;1277;22304;-89
2022/06/03 01:08:30;;;;;;;4.20;3.80;;;;;;;9.22;67.00;98516.25;109579;1277;23171;-89
2022/06/03 01:11:22;;;;;;;3.90;3.50;;;;;;;9.11;67.69;98519.08;109281;1277;22363;-89
2022/06/03 01:14:13;;;;;;;4.20;3.50;;;;;;;8.99;67.85;98523.41;109577;1277;22441;-89
2022/06/03 01:17:13;;;;;;;4.30;3.80;;;;;;;8.94;67.70;98528.43;109548;1277;22449;-87
2022/06/03 01:19:50;;;;;;;4.80;4.40;;;;;;;8.96;67.98;98523.20;109426;1275;22432;-90
2022/06/03 01:22:34;;;;;;;5.20;3.40;;;;;;;8.94;67.86;98524.17;109524;1277;23094;-90
2022/06/03 01:25:44;;;;;;;4.60;4.00;;;;;;;8.97;67.92;98523.11;109540;1278;22483;-88
2022/06/03 01:28:12;;;;;;;3.40;3.10;;;;;;;9.00;68.99;98521.42;109553;1277;22388;-90
2022/06/03 01:31:18;;;;;;;5.70;3.30;;;;;;;8.87;68.90;98524.90;109588;1277;22543;-89
2022/06/03 01:33:49;;;;;;;4.40;3.40;;;;;;;8.77;68.29;98524.38;109550;1277;22415;-91
2022/06/03 01:36:55;;;;;;;5.70;3.20;;;;;;;8.74;68.85;98526.16;109566;1277;23119;-91
2022/06/03 01:39:28;;;;;;;4.00;3.20;;;;;;;8.70;68.66;98528.64;108828;1284;22353;-88
2022/06/03 01:42:36;;;;;;;3.90;3.50;;;;;;;8.68;69.03;98526.48;108731;1284;23164;-91
2022/06/03 01:45:13;;;;;;;3.90;3.10;;;;;;;8.75;69.20;98533.35;108670;1284;22422;-91
2022/06/03 01:48:07;;;;;;;3.90;3.40;;;;;;;8.74;70.66;98530.03;108721;1284;22526;-92
2022/06/03 01:51:13;;;;;;;4.50;3.40;;;;;;;8.58;71.46;98535.90;108907;1284;22338;-91
2022/06/03 01:54:18;;;;;;;5.30;3.80;;;;;;;8.45;70.62;98539.02;109110;1284;22427;-87
2022/06/03 01:56:52;;;;;;;4.00;3.50;;;;;;;8.32;70.47;98535.77;109257;1284;22492;-88
2022/06/03 01:59:38;;;;;;;4.50;3.50;;;;;;;8.33;70.53;98543.33;109219;1284;22362;-86
2022/06/03 02:02:27;;;;;;;4.70;3.50;;;;;;;8.32;70.90;98533.71;108981;1284;22343;-90
2022/06/03 02:04:57;;;;;;;7.70;3.40;;;;;;;8.32;70.94;98531.52;108818;1285;22505;-92
2022/06/03 02:07:55;;;;;;;4.20;3.40;;;;;;;8.38;70.95;98536.80;108794;1284;22578;-89
2022/06/03 02:11:05;;;;;;;3.80;3.40;;;;;;;8.48;71.03;98539.66;109173;1277;22493;-88
2022/06/03 02:14:03;;;;;;;3.30;2.80;;;;;;;8.41;70.68;98541.75;108758;1284;23356;-89
2022/06/03 02:17:02;;;;;;;4.40;3.90;;;;;;;8.31;70.91;98545.21;108711;1284;22425;-88
2022/06/03 02:19:52;;;;;;;4.60;3.70;;;;;;;8.29;70.84;98547.95;108737;1284;22467;-89
2022/06/03 02:22:41;;;;;;;3.60;3.20;;;;;;;8.31;71.04;98551.93;108806;1284;22501;-90
2022/06/03 02:25:22;;;;;;;4.10;3.30;;;;;;;8.38;71.30;98547.38;108720;1284;22458;-89
2022/06/03 02:28:03;;;;;;;5.00;3.30;;;;;;;8.39;71.38;98546.59;108696;1283;22452;-88
2022/06/03 02:30:34;;;;;;;4.70;2.80;;;;;;;8.34;71.66;98546.50;108700;1284;22438;-91
2022/06/03 02:33:35;;;;;;;4.60;3.50;;;;;;;8.31;71.95;98550.31;108705;1284;22629;-89
2022/06/03 02:36:15;;;;;;;3.30;3.00;;;;;;;8.31;71.93;98546.02;108723;1284;23187;-91
2022/06/03 02:39:19;;;;;;;3.60;3.20;;;;;;;8.32;71.79;98549.83;108721;1284;22522;-86
2022/06/03 02:42:06;;;;;;;4.40;3.20;;;;;;;8.40;71.99;98545.88;108705;1284;22538;-87
2022/06/03 02:45:03;;;;;;;4.10;3.40;;;;;;;8.55;71.57;98543.58;108710;1284;22499;-86
2022/06/03 02:48:35;;;;;;;4.00;3.60;;;;;;;8.72;71.39;98546.73;109092;1277;22491;-84
2022/06/03 02:51:03;;;;;;;4.10;3.20;;;;;;;8.83;71.08;98549.30;109527;1277;22507;-84
2022/06/03 02:53:53;;;;;;;3.90;3.50;;;;;;;8.84;71.06;98555.00;109573;1276;22439;-85
2022/06/03 02:56:46;;;;;;;3.90;3.50;;;;;;;8.87;70.90;98553.55;109580;1277;22446;-84
2022/06/03 02:59:17;;;;;;;6.90;3.50;;;;;;;8.90;71.35;98554.62;109558;1277;23097;-86
2022/06/03 03:02:21;;;;;;;4.50;3.10;;;;;;;8.93;71.15;98552.95;109531;1277;22329;-86
2022/06/03 03:05:14;;;;;;;6.10;3.90;;;;;;;8.95;70.85;98550.31;109582;1277;22362;-86
2022/06/03 03:07:47;;;;;;;4.90;4.00;;;;;;;9.01;71.01;98552.17;109568;1277;22494;-85
2022/06/03 03:10:44;;;;;;;5.10;4.10;;;;;;;9.06;70.99;98555.66;109580;1277;22530;-85
2022/06/03 03:13:47;;;;;;;3.90;3.50;;;;;;;9.13;71.07;98558.71;109576;1277;22460;-85
2022/06/03 03:16:50;;;;;;;5.00;4.10;;;;;;;9.19;71.00;98561.49;108935;1277;22992;-86
2022/06/03 03:19:18;;;;;;;6.50;4.00;;;;;;;9.25;71.20;98561.73;109578;1276;22529;-84
2022/06/03 03:22:04;;;;;;;6.50;3.40;;;;;;;9.35;71.15;98560.15;109580;1277;22360;-86
2022/06/03 03:25:10;;;;;;;3.30;2.90;;;;;;;9.51;71.27;98561.27;109559;1277;22165;-87
2022/06/03 03:28:00;;;;;;;4.00;3.60;;;;;;;9.61;71.32;98557.46;109419;1277;22537;-87
2022/06/03 03:31:02;;;;;;;3.40;3.10;;;;;;;9.68;71.07;98557.39;109558;1277;23108;-86
2022/06/03 03:33:57;;;;;;;5.50;3.60;;;;;;;9.80;71.43;98557.54;109533;1277;22356;-87
2022/06/03 03:37:02;;;;;;;5.90;3.10;;;;;;;9.93;71.36;98555.31;109554;1277;22422;-88
2022/06/03 03:39:54;;;;;;;4.60;3.30;;;;;;;10.09;71.57;98552.36;109556;1277;22368;-87
2022/06/03 03:42:47;;;;;;;4.00;3.50;;;;;;;10.27;71.16;98557.38;109546;1276;22417;-88
2022/06/03 03:45:55;;;;;;;3.90;3.20;;;;;;;10.44;70.95;98557.91;109538;1277;23103;-87
2022/06/03 03:48:41;;;;;;;3.80;3.30;;;;;;;10.62;71.15;98555.55;109534;1277;22346;-86
2022/06/03 03:51:40;;;;;;;4.30;3.40;;;;;;;10.77;71.00;98557.52;109559;1277;22686;-87
2022/06/03 03:54:08;;;;;;;4.30;3.50;;;;;;;10.90;70.92;98561.98;109546;1277;22449;-88
2022/06/03 03:56:51;;;;;;;5.80;3.70;;;;;;;11.03;70.66;98564.35;109540;1277;22329;-86
2022/06/03 03:59:19;;;;;;;4.60;3.60;;;;;;;11.20;70.78;98566.38;109538;1277;22414;-88
2022/06/03 04:01:52;;;;;;;4.80;3.50;;;;;;;11.39;70.74;98566.21;109628;1277;22363;-88
2022/06/03 04:04:42;;;;;;;7.50;4.10;;;;;;;11.60;70.50;98564.56;109575;1277;22248;-89
2022/06/03 04:07:25;;;;;;;7.20;3.90;;;;;;;11.82;70.31;98565.76;109560;1277;22288;-89
2022/06/03 04:10:09;;;;;;;5.50;4.20;;;;;;;12.03;70.32;98563.89;109543;1277;22537;-87
2022/06/03 04:13:13;;;;;;;6.50;4.00;;;;;;;12.23;70.03;98564.94;109568;1277;23061;-89
2022/06/03 04:16:03;;;;;;;6.40;3.80;;;;;;;12.43;69.86;98565.61;109547;1277;22305;-89
2022/06/03 04:19:10;;;;;;;4.50;3.90;;;;;;;12.60;69.72;98568.04;109580;1277;22367;-89
2022/06/03 04:22:04;;;;;;;4.40;3.90;;;;;;;12.82;69.53;98576.17;109271;1277;23667;-88
2022/06/03 04:25:00;;;;;;;5.50;4.00;;;;;;;13.00;69.26;98578.62;109531;1277;22473;-89
2022/06/03 04:27:50;;;;;;;4.30;3.80;;;;;;;13.16;68.98;98573.77;109551;1277;22517;-89
2022/06/03 04:30:42;;;;;;;5.60;4.90;;;;;;;13.31;68.77;98574.47;109556;1277;22404;-89
2022/06/03 04:33:41;;;;;;;5.90;4.90;;;;;;;13.47;68.70;98573.50;109576;1277;22374;-89
2022/06/03 04:36:36;;;;;;;6.00;4.60;;;;;;;13.62;67.86;98571.29;109587;1277;23132;-89
2022/06/03 04:39:25;;;;;;;7.80;4.40;;;;;;;13.82;67.79;98575.55;109556;1277;22258;-88
2022/06/03 04:42:18;;;;;;;6.00;4.50;;;;;;;13.99;67.08;98572.69;109586;1277;22274;-88
2022/06/03 04:45:17;;;;;;;5.60;4.00;;;;;;;14.15;66.36;98575.93;109574;1277;22379;-86
2022/06/03 04:48:22;;;;;;;4.90;3.50;;;;;;;14.27;65.79;98577.60;109578;1277;22397;-87
2022/06/03 04:51:08;;;;;;;7.80;4.00;;;;;;;14.45;65.66;98584.95;109581;1276;23146;-89
2022/06/03 04:54:12;;;;;;;7.70;4.50;;;;;;;14.58;65.02;98583.90;109583;1277;22433;-88
2022/06/03 04:57:02;;;;;;;6.30;4.50;;;;;;;14.69;64.88;98578.13;109607;1277;22325;-88
2022/06/03 04:59:53;;;;;;;5.70;4.10;;;;;;;14.84;64.68;98583.31;109664;1277;22322;-88
2022/06/03 05:02:55;;;;;;;6.40;4.20;;;;;;;15.00;64.64;98590.63;109640;1276;22268;-88
2022/06/03 05:05:32;;;;;;;6.30;4.10;;;;;;;15.14;64.17;98594.05;109581;1277;22354;-88
2022/06/03 05:08:30;;;;;;;6.30;4.10;;;;;;;15.24;63.57;98600.16;109604;1277;22500;-87
2022/06/03 05:11:34;;;;;;;6.90;4.10;;;;;;;15.36;63.38;98598.27;109599;1277;22294;-88
2022/06/03 05:14:40;;;;;;;6.20;4.50;;;;;;;15.45;62.80;98599.05;109576;1277;22413;-87
2022/06/03 05:17:25;;;;;;;6.90;3.80;;;;;;;15.57;62.82;98599.31;109586;1277;23510;-86
2022/06/03 05:20:05;;;;;;;7.60;4.10;;;;;;;15.68;62.35;98597.19;109599;1277;22360;-85
2022/06/03 05:23:03;;;;;;;5.40;4.00;;;;;;;15.74;62.04;98602.86;109643;1276;23104;-87
2022/06/03 05:25:43;;;;;;;5.40;4.00;;;;;;;15.85;61.52;98600.94;109618;1277;22343;-87
2022/06/03 05:28:56;;;;;;;7.90;4.10;;;;;;;15.95;61.56;98606.11;109630;1277;22506;-88
2022/06/03 05:32:00;;;;;;;6.80;4.10;;;;;;;16.05;60.55;98609.55;108637;1284;22984;-87
2022/06/03 05:34:39;;;;;;;5.80;3.80;;;;;;;16.14;60.32;98611.13;108794;1284;23310;-87
2022/06/03 05:37:49;;;;;;;5.70;4.20;;;;;;;16.22;59.71;98612.67;108782;1283;23082;-88
2022/06/03 05:40:19;;;;;;;7.30;3.90;;;;;;;16.31;59.84;98611.66;108269;1284;23309;-88
2022/06/03 05:43:00;;;;;;;6.50;4.00;;;;;;;16.40;59.30;98612.62;108848;1284;22240;-89
2022/06/03 05:45:28;;;;;;;6.10;3.80;;;;;;;16.46;58.67;98612.18;108838;1283;23358;-87
2022/06/03 05:48:14;;;;;;;6.10;3.60;;;;;;;16.51;58.60;98608.37;108787;1284;23048;-86
2022/06/03 05:51:13;;;;;;;8.00;4.10;;;;;;;16.56;58.06;98610.94;108798;1284;23071;-88
2022/06/03 05:53:50;;;;;;;7.90;4.20;;;;;;;16.61;57.77;98609.81;108772;1283;23046;-89
2022/06/03 05:56:46;;;;;;;7.50;4.10;;;;;;;16.67;57.68;98610.70;108790;1283;22299;-89
2022/06/03 05:59:28;;;;;;;8.90;4.00;;;;;;;16.73;57.15;98610.67;108767;1284;22376;-89
2022/06/03 06:02:28;;;;;;;6.90;3.70;;;;;;;16.80;57.06;98606.21;108977;1277;22552;-89
2022/06/03 06:05:21;;;;;;;8.30;4.00;;;;;;;16.85;56.69;98605.84;109549;1277;23089;-90
2022/06/03 06:08:21;;;;;;;5.00;3.60;;;;;;;16.93;56.96;98605.70;109595;1276;22382;-90
2022/06/03 06:11:33;;;;;;;12.50;4.50;;;;;;;17.04;56.58;98601.14;109592;1277;23107;-89
2022/06/03 06:14:04;;;;;;;5.70;3.80;;;;;;;17.15;56.42;98608.86;108804;1283;23154;-87
2022/06/03 06:16:45;;;;;;;6.70;3.80;;;;;;;17.26;56.07;98605.02;108786;1282;23162;-90
2022/06/03 06:19:46;;;;;;;6.50;4.20;;;;;;;17.35;55.85;98600.24;108682;1284;23230;-90
2022/06/03 06:22:27;;;;;;;8.50;3.70;;;;;;;17.50;56.23;98601.79;108783;1283;22600;-88
2022/06/03 06:25:06;;;;;;;5.70;3.60;;;;;;;17.63;55.66;98599.23;108788;1284;22437;-89
2022/06/03 06:27:52;;;;;;;8.70;3.70;;;;;;;17.75;55.17;98597.77;108781;1284;23139;-89
2022/06/03 06:30:32;;;;;;;5.90;3.20;;;;;;;17.86;54.92;98601.97;108763;1284;22443;-90
2022/06/03 06:33:12;;;;;;;5.00;3.10;;;;;;;17.97;54.08;98602.29;108783;1284;23239;-90
2022/06/03 06:35:59;;;;;;;5.90;2.60;;;;;;;18.03;53.31;98603.25;108785;1283;23187;-91
2022/06/03 06:38:44;;;;;;;8.40;3.00;;;;;;;18.12;53.26;98607.97;108541;1285;22442;-87
2022/06/03 06:41:45;;;;;;;5.90;3.20;;;;;;;18.24;52.43;98609.34;108560;1283;22316;-87
2022/06/03 06:44:40;;;;;;;6.10;3.20;;;;;;;18.32;51.68;98604.50;108852;1277;22457;-87
2022/06/03 06:47:17;;;;;;;4.20;3.00;;;;;;;18.40;51.41;98604.88;109556;1277;22396;-90
2022/06/03 06:50:06;;;;;;;5.40;2.80;;;;;;;18.47;50.63;98603.56;109550;1277;22430;-90
2022/06/03 06:52:55;;;;;;;3.90;2.70;;;;;;;18.53;50.55;98600.61;109577;1277;22268;-89
2022/06/03 06:55:51;;;;;;;4.40;2.60;;;;;;;18.65;50.47;98603.58;109558;1276;22376;-85
2022/06/03 06:58:59;;;;;;;3.50;2.10;;;;;;;18.78;50.83;98602.25;109518;1276;22419;-84
2022/06/03 07:01:57;;;;;;;4.30;2.50;;;;;;;18.91;50.69;98599.18;108784;1282;22403;-83
2022/06/03 07:04:33;;;;;;;4.30;2.30;;;;;;;19.01;48.92;98598.52;108672;1283;22460;-82
2022/06/03 07:07:33;;;;;;;4.20;2.40;;;;;;;19.04;48.65;98599.40;108787;1282;22454;-82
2022/06/03 07:10:24;;;;;;;3.90;2.40;;;;;;;19.11;48.14;98600.41;108745;1283;22568;-84
2022/06/03 07:12:57;;;;;;;8.00;2.90;;;;;;;19.17;48.51;98597.02;108786;1283;23034;-83
2022/06/03 07:15:48;;;;;;;6.00;2.40;;;;;;;19.20;47.77;98594.09;108777;1282;22286;-82
2022/06/03 07:21:16;;;;;;;5.60;2.50;;;;;;;19.35;47.42;98586.86;108755;1282;22441;-83
2022/06/03 07:23:48;;;;;;;6.30;3.00;;;;;;;19.48;47.40;98591.68;108743;1282;22396;-83
2022/06/03 07:26:36;;;;;;;5.20;2.70;;;;;;;19.58;47.27;98592.59;108751;1283;22397;-83
2022/06/03 07:29:22;;;;;;;3.80;2.50;;;;;;;19.69;47.03;98593.05;108750;1283;22374;-83
2022/06/03 07:32:03;;;;;;;5.40;2.80;;;;;;;19.82;47.41;98592.14;108770;1283;22535;-83
2022/06/03 07:34:54;;;;;;;3.60;2.60;;;;;;;19.94;47.26;98592.23;108649;1283;22404;-82
2022/06/03 07:38:00;;;;;;;7.70;2.60;;;;;;;20.05;46.74;98589.41;109011;1279;22436;-82
2022/06/03 07:40:37;;;;;;;5.50;2.90;;;;;;;20.18;46.89;98590.05;109167;1277;22469;-83
2022/06/03 07:43:28;;;;;;;4.50;2.90;;;;;;;20.30;46.86;98584.94;109313;1278;23153;-83
2022/06/03 07:46:13;;;;;;;4.90;2.40;;;;;;;20.42;46.55;98583.64;109510;1277;22353;-83
2022/06/03 07:48:42;;;;;;;4.30;2.50;;;;;;;20.49;45.88;98583.81;109505;1277;23084;-83
2022/06/03 07:51:21;;;;;;;7.40;2.60;;;;;;;20.53;45.75;98574.98;109493;1277;22430;-82
2022/06/03 07:53:54;;;;;;;7.30;2.90;;;;;;;20.50;45.15;98572.59;109512;1277;22352;-82
2022/06/03 07:56:27;;;;;;;4.10;2.80;;;;;;;20.51;44.91;98574.46;109520;1277;22945;-83
2022/06/03 07:58:58;;;;;;;9.40;2.70;;;;;;;20.55;44.75;98575.81;109496;1277;22396;-83
2022/06/03 08:01:31;;;;;;;5.20;2.70;;;;;;;20.61;45.03;98575.45;109524;1277;22352;-83
2022/06/03 08:03:59;;;;;;;4.60;2.70;;;;;;;20.73;44.61;98574.36;109503;1277;22396;-83
2022/06/03 08:12:26;;;;;;;5.00;2.90;;;;;;;20.99;44.05;98559.25;109356;1279;22274;-83
2022/06/03 08:14:55;;;;;;;7.60;3.30;;;;;;;21.08;43.26;98563.65;109357;1277;22353;-83
2022/06/03 08:17:25;;;;;;;4.70;3.00;;;;;;;21.15;43.92;98561.79;109504;1277;22778;-83
2022/06/03 08:19:54;;;;;;;5.20;2.70;;;;;;;21.25;43.69;98564.23;109267;1277;22442;-83
2022/06/03 08:22:24;;;;;;;6.00;2.70;;;;;;;21.37;44.02;98562.73;109333;1278;22472;-84
2022/06/03 08:24:58;;;;;;;6.00;2.90;;;;;;;21.48;42.95;98559.59;109498;1277;23211;-81
2022/06/03 08:27:31;;;;;;;8.60;3.30;;;;;;;21.49;42.78;98557.31;109557;1277;22358;-82
2022/06/03 08:30:07;;;;;;;8.00;3.50;;;;;;;21.54;43.05;98559.48;109241;1279;22361;-84
2022/06/03 08:32:40;;;;;;;7.00;2.90;;;;;;;21.68;43.37;98564.21;109509;1277;22365;-81
2022/06/03 08:35:19;;;;;;;4.80;2.90;;;;;;;21.80;41.67;98558.53;109287;1277;22471;-81
2022/06/03 08:37:59;;;;;;;6.60;3.30;;;;;;;21.73;42.03;98562.61;109490;1277;22341;-83
2022/06/03 08:41:05;;;;;;;7.60;3.00;;;;;;;21.82;41.88;98559.81;109302;1278;22408;-84
2022/06/03 08:43:39;;;;;;;7.90;3.10;;;;;;;21.85;41.29;98558.02;109501;1275;22354;-83
2022/06/03 08:46:26;;;;;;;7.70;3.20;;;;;;;21.95;41.92;98559.02;109483;1277;22360;-84
2022/06/03 08:49:01;;;;;;;5.70;3.30;;;;;;;22.11;42.21;98552.30;109438;1277;22338;-83
2022/06/03 08:51:52;;;;;;;7.20;3.10;;;;;;;22.28;40.92;98554.81;109301;1277;22929;-81
2022/06/03 08:54:28;;;;;;;5.60;2.60;;;;;;;22.38;40.92;98545.79;109485;1277;23102;-84
2022/06/03 08:57:05;;;;;;;3.50;2.60;;;;;;;22.53;40.62;98550.31;109390;1277;22236;-84
2022/06/03 08:59:53;;;;;;;3.90;2.70;;;;;;;22.65;39.97;98542.86;109498;1276;22584;-84
2022/06/03 09:02:33;;;;;;;5.30;2.90;;;;;;;22.75;39.25;98551.36;109471;1277;22391;-81
2022/06/03 09:05:12;;;;;;;5.80;2.80;;;;;;;22.83;39.81;98549.00;109391;1277;22451;-84
2022/06/03 09:07:45;;;;;;;6.90;2.60;;;;;;;22.95;40.51;98541.44;109431;1277;22405;-85
2022/06/03 09:10:16;;;;;;;7.10;2.70;;;;;;;23.07;39.49;98540.44;109560;1277;23130;-84
2022/06/03 09:13:22;;;;;;;5.00;2.50;;;;;;;23.09;39.97;98540.86;109499;1277;22392;-81
2022/06/03 09:15:50;;;;;;;3.70;2.20;;;;;;;23.16;39.51;98534.45;109049;1275;23228;-82
2022/06/03 09:18:33;;;;;;;5.10;2.40;;;;;;;23.14;38.85;98531.98;109422;1277;22366;-82
2022/06/03 09:21:08;;;;;;;5.80;2.70;;;;;;;23.20;39.57;98522.18;109546;1277;22442;-82
2022/06/03 09:23:41;;;;;;;5.80;2.90;;;;;;;23.32;38.11;98529.70;109545;1277;22370;-82
2022/06/03 09:26:29;;;;;;;3.80;2.40;;;;;;;23.28;38.06;98531.05;109543;1277;22388;-82
2022/06/03 09:28:59;;;;;;;3.90;2.50;;;;;;;23.29;38.24;98524.23;109308;1277;23093;-82
2022/06/03 09:31:29;;;;;;;5.10;2.30;;;;;;;23.40;37.84;98524.31;109334;1277;22403;-83
2022/06/03 09:33:58;;;;;;;3.70;2.30;;;;;;;23.44;38.08;98526.66;109508;1277;23060;-83
2022/06/03 09:36:28;;;;;;;3.90;2.10;;;;;;;23.49;38.04;98532.96;109541;1275;22334;-83
2022/06/03 09:39:03;;;;;;;5.90;2.30;;;;;;;23.61;38.13;98530.00;109572;1277;22335;-86
2022/06/03 09:41:37;;;;;;;5.50;3.00;;;;;;;23.66;37.93;98530.92;109565;1277;22347;-86
2022/06/03 09:44:09;;;;;;;4.30;2.90;;;;;;;23.72;37.23;98532.23;109541;1277;22395;-90
2022/06/03 09:46:39;;;;;;;5.00;2.60;;;;;;;23.72;37.08;98536.95;109343;1277;22290;-90
2022/06/03 09:49:08;;;;;;;6.50;2.60;;;;;;;23.70;36.68;98527.94;109416;1277;22373;-93
2022/06/03 09:51:56;;;;;;;4.50;2.70;;;;;;;23.71;36.61;98518.77;109642;1277;22417;-93
2022/06/03 09:54:32;;;;;;;6.90;3.00;;;;;;;23.75;36.66;98520.73;109416;1277;22408;-92
2022/06/03 09:57:28;;;;;;;5.80;3.10;;;;;;;23.86;36.06;98521.34;109547;1277;23135;-89
2022/06/03 10:00:14;;;;;;;4.10;2.20;;;;;;;23.87;35.94;98517.56;109659;1276;22455;-91
2022/06/03 10:02:45;;;;;;;3.80;2.70;;;;;;;23.75;35.55;98516.71;109706;1277;22397;-92
2022/06/03 10:05:16;;;;;;;5.60;2.80;;;;;;;23.79;36.01;98519.60;109744;1277;23147;-91
2022/06/03 10:07:48;;;;;;;6.40;2.80;;;;;;;23.95;36.64;98520.29;109701;1277;23107;-91
2022/06/03 10:13:08;;;;;;;11.30;3.40;;;;;;;24.34;35.73;98522.84;109425;1277;22443;-91
2022/06/03 10:15:46;;;;;;;6.40;2.60;;;;;;;24.42;35.96;98518.45;109499;1277;22422;-91
2022/06/03 10:18:29;;;;;;;5.90;2.80;;;;;;;24.47;35.77;98521.30;109726;1277;22499;-91
2022/06/03 10:21:14;;;;;;;4.20;2.40;;;;;;;24.57;35.90;98517.39;109518;1275;220111;-90
2022/06/03 10:23:45;;;;;;;4.60;2.40;;;;;;;24.60;35.98;98513.40;109694;1276;22344;-94
2022/06/03 10:26:22;;;;;;;3.80;2.30;;;;;;;24.74;35.46;98513.63;109596;1277;22370;-90
2022/06/03 10:28:53;;;;;;;2.60;2.20;;;;;;;24.89;34.82;98506.38;109803;1277;22947;-87
2022/06/03 10:31:29;;;;;;;4.70;2.30;;;;;;;25.01;34.34;98501.45;109787;1277;22453;-89
2022/06/03 10:34:00;;;;;;;4.30;2.70;;;;;;;25.08;34.36;98499.61;109536;1277;22448;-86
2022/06/03 10:36:33;;;;;;;4.60;2.10;;;;;;;25.16;34.58;98500.34;109342;1277;22476;-87
2022/06/03 10:39:01;;;;;;;8.70;2.50;;;;;;;25.31;33.90;98499.36;109347;1277;22414;-86
2022/06/03 10:41:32;;;;;;;7.30;2.20;;;;;;;25.47;34.16;98499.55;109526;1276;22393;-85
2022/06/03 10:44:08;;;;;;;4.00;2.30;;;;;;;25.69;34.02;98493.88;109536;1277;22289;-82
2022/06/03 10:46:36;;;;;;;2.60;1.90;;;;;;;25.74;33.94;98487.36;109501;1277;22330;-83
2022/06/03 10:49:16;;;;;;;4.70;2.40;;;;;;;25.89;33.60;98490.08;109351;1277;22422;-81
2022/06/03 11:03:06;;;;;;;5.20;2.10;;;;;;;26.12;33.39;98476.61;109505;1277;23211;-89
2022/06/03 11:05:37;;;;;;;4.30;2.30;;;;;;;26.17;32.92;98471.10;109341;1277;22382;-86
2022/06/03 11:08:10;;;;;;;5.50;2.40;;;;;;;26.19;32.88;98468.43;109507;1277;22536;-88
2022/06/03 11:10:45;;;;;;;4.90;2.70;;;;;;;26.27;32.98;98467.35;109532;1277;22409;-80
2022/06/03 11:13:25;;;;;;;10.10;2.20;;;;;;;26.37;32.73;98470.30;109502;1277;22351;-80
2022/06/03 11:15:54;;;;;;;3.50;1.90;;;;;;;26.52;32.46;98469.73;109502;1276;23167;-81
2022/06/03 11:18:32;;;;;;;3.70;1.70;;;;;;;26.66;31.80;98469.54;109493;1276;23540;-82
2022/06/03 11:21:27;;;;;;;3.40;1.90;;;;;;;26.74;30.69;98474.37;109511;1276;22288;-82
2022/06/03 11:23:59;;;;;;;;;;;;;;;26.72;30.06;98471.98;109433;1277;23132;-82
2022/06/03 11:26:35;;;;;;;4.80;2.20;;;;;;;26.71;30.03;98464.87;109474;1277;22485;-81
2022/06/03 11:29:15;;;;;;;3.30;2.30;;;;;;;26.67;29.74;98461.88;109520;1277;22322;-81
2022/06/03 11:31:46;;;;;;;8.50;3.60;;;;;;;26.81;30.53;98458.42;109562;1276;22419;-81
2022/06/03 11:34:25;;;;;;;6.60;2.90;;;;;;;26.98;30.24;98453.92;109407;1277;23038;-80
2022/06/03 11:37:03;;;;;;;3.70;2.30;;;;;;;27.15;30.38;98457.98;109497;1277;23150;-81
2022/06/03 11:39:49;;;;;;;2.00;1.70;;;;;;;27.29;29.09;98454.34;109508;1276;22499;-87
2022/06/03 11:42:26;;;;;;;3.50;2.20;;;;;;;27.36;28.79;98451.48;109508;1277;22376;-83
2022/06/03 11:45:14;;;;;;;3.10;2.10;;;;;;;27.49;28.90;98449.73;109511;1277;22496;-85
2022/06/03 11:47:49;;;;;;;6.60;1.90;;;;;;;27.65;29.04;98443.83;109521;1277;22419;-84
2022/06/03 11:50:20;;;;;;;4.70;2.00;;;;;;;27.83;27.50;98439.23;109537;1275;22441;-86
2022/06/03 11:52:51;;;;;;;2.60;1.70;;;;;;;27.78;27.56;98441.52;109414;1277;22660;-87
2022/06/03 11:55:22;;;;;;;3.90;1.60;;;;;;;27.87;27.54;98437.55;109515;1267;22434;-91
2022/06/03 12:01:12;;;;;;;1.90;1.50;;;;;;;28.22;27.48;98427.52;109584;1267;22455;31
2022/06/03 12:07:38;;;;;;;5.80;1.80;;;;;;;28.48;27.27;98413.60;109527;1275;22665;-90
2022/06/03 12:10:50;;;;;;;1.80;1.40;;;;;;;28.52;26.88;98416.02;109527;1276;22493;-91
2022/06/03 12:13:27;;;;;;;1.70;1.50;;;;;;;28.58;25.35;98412.50;109399;1277;22445;-91
2022/06/03 12:15:56;;;;;;;7.10;1.90;;;;;;;28.30;25.56;98406.17;109541;1277;22482;-91
2022/06/03 12:21:30;;;;;;;3.60;1.90;;;;;;;28.27;26.33;98400.63;109450;1267;22556;-90
2022/06/03 12:27:15;;;;;;;8.30;1.80;;;;;;;28.60;25.71;98394.74;109519;1279;22428;-89
2022/06/03 12:30:02;;;;;;;4.00;1.80;;;;;;;28.81;25.80;98397.59;109670;1267;22252;-91
2022/06/03 12:32:36;;;;;;;3.40;1.90;;;;;;;29.03;25.82;98387.27;109595;1277;22370;-89
2022/06/03 12:35:41;;;;;;;3.70;1.60;;;;;;;29.23;25.61;98376.23;109601;1277;22435;-92
2022/06/03 12:38:39;;;;;;;3.80;1.70;;;;;;;29.34;25.81;98372.95;109664;1277;22302;-90
2022/06/03 12:41:09;;;;;;;5.20;1.80;;;;;;;29.55;25.90;98378.83;108898;1284;22684;-93
2022/06/03 12:43:45;;;;;;;3.50;1.80;;;;;;;29.73;24.77;98378.71;108917;1285;22363;-93
2022/06/03 12:46:42;;;;;;;4.90;1.90;;;;;;;29.74;24.53;98375.38;108771;1284;22595;-91
2022/06/03 12:52:22;;;;;;;2.90;1.70;;;;;;;29.83;24.32;98369.22;109484;1279;22244;-89
2022/06/03 12:54:53;;;;;;;5.90;1.60;;;;;;;29.82;25.33;98364.56;109556;1277;23010;-92
2022/06/03 12:57:27;;;;;;;5.20;2.00;;;;;;;29.90;23.82;98355.09;109501;1280;22387;-92
2022/06/03 13:00:01;;;;;;;4.70;1.80;;;;;;;29.90;24.47;98357.31;109596;1277;22278;-91
2022/06/03 13:02:46;;;;;;;4.70;1.70;;;;;;;30.04;24.74;98349.58;109538;1277;22331;-88
2022/06/03 13:05:35;;;;;;;3.90;1.70;;;;;;;29.95;24.37;98351.05;109595;1277;22401;-90
2022/06/03 13:08:03;;;;;;;3.90;1.80;;;;;;;29.95;24.49;98346.29;109449;1278;22406;-90
2022/06/03 13:13:48;;;;;;;3.30;1.80;;;;;;;30.25;24.97;98345.73;109326;1278;22524;-87
2022/06/03 13:16:16;;;;;;;3.00;1.90;;;;;;;30.41;24.57;98344.70;109379;1278;22378;-87
2022/06/03 13:18:49;;;;;;;4.30;1.80;;;;;;;30.43;24.32;98337.13;109399;1279;22369;-87
2022/06/03 13:21:27;;;;;;;3.40;2.00;;;;;;;30.64;24.31;98333.05;109162;1280;22449;-90
2022/06/03 13:24:20;;;;;;;3.20;2.00;;;;;;;30.55;24.22;98330.73;109136;1280;22363;-86
2022/06/03 13:27:05;;;;;;;4.80;1.80;;;;;;;30.66;24.46;98332.30;109354;1279;22349;-88
2022/06/03 13:29:52;;;;;;;3.60;2.00;;;;;;;30.84;23.65;98329.23;109412;1279;22396;-89